Time;durP1;ratioP1;P1;durP2;ratioP2;P2;SDS_P1;SDS_P2;PMS_P1;PMS_P2;Temp;Humidity;BMP_temperature;BMP_pressure;BME280_temperature;BME280_humidity;BME280_pressure;Samples;Min_cycle;Max_cycle;Signal;HPM_P1;HPM_P2
2023/07/17 00:00:18;;;;;;;19.90;18.10;;;;;;;22.96;88.57;93179.25;5056636;28;20231;-73
2023/07/17 00:02:44;;;;;;;21.70;18.58;;;;;;;22.73;91.39;93177.47;5055826;28;20200;-73
2023/07/17 00:05:10;;;;;;;21.40;19.13;;;;;;;22.80;91.21;93183.75;5052224;28;20240;-73
2023/07/17 00:07:36;;;;;;;22.05;19.45;;;;;;;22.76;90.93;93182.88;5052834;28;20186;-73
2023/07/17 00:10:03;;;;;;;20.30;18.23;;;;;;;22.77;90.82;93181.00;5052847;28;20312;-73
2023/07/17 00:12:29;;;;;;;21.40;19.38;;;;;;;22.80;90.60;93178.41;5052100;28;20243;-73
2023/07/17 00:14:55;;;;;;;20.55;18.13;;;;;;;22.75;90.78;93177.91;5060604;28;20283;-73
2023/07/17 00:17:20;;;;;;;20.48;18.38;;;;;;;22.76;91.31;93172.25;5053049;28;20218;-73
2023/07/17 00:19:56;;;;;;;20.83;18.90;;;;;;;22.73;91.36;93172.91;5051927;28;20232;-72
2023/07/17 00:22:22;;;;;;;20.55;18.45;;;;;;;22.69;91.50;93179.25;5048451;28;20188;-73
2023/07/17 00:24:49;;;;;;;20.67;18.63;;;;;;;22.61;91.88;93159.66;5062138;28;20232;-74
2023/07/17 00:27:15;;;;;;;23.33;21.02;;;;;;;22.68;92.18;93169.75;5052771;28;20212;-73
2023/07/17 00:29:40;;;;;;;22.00;19.73;;;;;;;22.47;94.62;93185.84;5053908;28;20305;-73
2023/07/17 00:32:06;;;;;;;21.67;19.10;;;;;;;22.49;94.09;93188.94;5052911;28;20202;-73
2023/07/17 00:34:31;;;;;;;21.70;19.02;;;;;;;22.54;93.34;93188.72;5049119;28;20427;-73
2023/07/17 00:36:57;;;;;;;20.02;18.05;;;;;;;22.58;92.22;93194.94;5032773;28;20220;-73
2023/07/17 00:39:23;;;;;;;21.50;19.50;;;;;;;22.37;93.03;93196.97;5032935;28;20190;-73
2023/07/17 00:41:50;;;;;;;22.15;19.85;;;;;;;22.15;95.10;93194.78;5052130;28;20192;-73
2023/07/17 00:44:16;;;;;;;23.02;20.48;;;;;;;22.35;94.24;93185.13;5051894;28;20216;-68
2023/07/17 00:46:41;;;;;;;23.05;20.58;;;;;;;22.35;93.45;93199.16;5051951;28;20682;-73
2023/07/17 00:49:08;;;;;;;22.95;20.10;;;;;;;22.33;93.79;93204.06;5051258;28;20194;-73
2023/07/17 00:51:36;;;;;;;26.65;20.65;;;;;;;22.41;93.49;93202.38;5051641;28;20292;-74
2023/07/17 00:54:01;;;;;;;21.70;19.58;;;;;;;22.43;93.08;93211.56;5051894;28;20183;-73
2023/07/17 00:56:28;;;;;;;23.98;19.13;;;;;;;22.44;93.42;93199.84;5051816;28;20299;-74
2023/07/17 00:58:54;;;;;;;20.52;18.60;;;;;;;22.50;93.13;93187.84;5051494;28;20279;-73
2023/07/17 01:01:20;;;;;;;21.67;19.58;;;;;;;22.50;93.95;93195.81;5051978;28;20217;-74
2023/07/17 01:03:46;;;;;;;23.02;20.55;;;;;;;22.53;94.18;93189.06;5055854;28;20242;-74
2023/07/17 01:06:11;;;;;;;24.35;20.15;;;;;;;22.57;94.18;93196.03;5052403;28;20228;-73
2023/07/17 01:08:36;;;;;;;21.42;19.13;;;;;;;22.50;94.32;93195.81;5047580;28;20193;-74
2023/07/17 01:11:02;;;;;;;21.42;19.13;;;;;;;22.45;95.18;93192.59;5037163;28;20229;-74
2023/07/17 01:13:28;;;;;;;22.10;19.83;;;;;;;22.42;95.03;93195.94;5031411;28;20200;-74
2023/07/17 01:15:53;;;;;;;21.75;19.52;;;;;;;22.24;95.37;93184.81;5039702;28;20235;-74
2023/07/17 01:18:18;;;;;;;21.20;19.17;;;;;;;22.34;95.45;93200.28;5051530;28;20193;-74
2023/07/17 01:20:44;;;;;;;22.80;20.13;;;;;;;22.26;96.75;93200.44;5050626;28;20250;-73
2023/07/17 01:23:09;;;;;;;21.38;19.27;;;;;;;22.19;97.05;93198.34;5041515;28;20185;-73
2023/07/17 01:25:35;;;;;;;23.17;20.33;;;;;;;22.17;97.22;93187.25;5044971;28;20218;-74
2023/07/17 01:28:00;;;;;;;22.30;20.15;;;;;;;22.30;96.48;93196.75;5051455;28;20338;-74
2023/07/17 01:30:25;;;;;;;21.05;19.15;;;;;;;22.08;97.31;93190.03;5051474;28;20228;-74
2023/07/17 01:32:51;;;;;;;21.35;19.15;;;;;;;22.14;98.05;93198.56;5051394;28;20215;-74
2023/07/17 01:35:16;;;;;;;22.98;20.50;;;;;;;22.12;98.27;93195.44;5057474;28;20271;-74
2023/07/17 01:37:42;;;;;;;26.67;19.48;;;;;;;22.03;98.83;93187.59;5059491;28;20204;-74
2023/07/17 01:40:09;;;;;;;22.02;19.75;;;;;;;22.06;98.63;93199.44;5052258;28;20240;-74
2023/07/17 01:42:35;;;;;;;23.20;20.75;;;;;;;21.93;99.07;93184.63;5051229;28;20197;-73
2023/07/17 01:45:01;;;;;;;23.38;21.08;;;;;;;22.08;99.09;93197.25;5050506;28;20251;-74
2023/07/17 01:47:26;;;;;;;22.52;19.73;;;;;;;21.92;99.84;93188.38;5051191;28;20185;-74
2023/07/17 01:49:51;;;;;;;21.85;19.63;;;;;;;21.84;100.00;93194.59;5050728;28;20231;-73
2023/07/17 01:52:17;;;;;;;24.55;20.77;;;;;;;21.79;100.00;93202.81;5058788;28;20193;-74
2023/07/17 01:54:43;;;;;;;23.52;21.05;;;;;;;21.92;100.00;93201.69;5056910;28;20226;-74
2023/07/17 01:57:09;;;;;;;22.25;20.00;;;;;;;21.94;100.00;93210.09;5054101;28;20232;-73
2023/07/17 01:59:34;;;;;;;24.50;21.60;;;;;;;21.99;100.00;93207.22;5050488;28;20184;-74
2023/07/17 02:02:00;;;;;;;20.95;18.73;;;;;;;21.75;100.00;93202.69;5050990;28;20219;-74
2023/07/17 02:04:26;;;;;;;23.85;21.65;;;;;;;21.73;100.00;93196.13;5049945;28;20296;-73
2023/07/17 02:06:51;;;;;;;22.83;20.63;;;;;;;21.80;100.00;93213.13;5050711;28;20180;-73
2023/07/17 02:09:16;;;;;;;22.85;20.58;;;;;;;21.69;100.00;93224.47;5054185;28;20214;-73
2023/07/17 02:11:42;;;;;;;23.15;20.75;;;;;;;21.70;100.00;93210.06;5053967;28;20193;-74
2023/07/17 02:14:07;;;;;;;23.08;20.98;;;;;;;21.53;100.00;93204.97;5050780;28;20188;-73
2023/07/17 02:16:32;;;;;;;22.70;20.17;;;;;;;21.70;100.00;93228.66;5049841;28;20288;-74
2023/07/17 02:18:58;;;;;;;23.63;21.33;;;;;;;21.60;100.00;93229.91;5050393;28;20215;-73
2023/07/17 02:21:24;;;;;;;22.67;20.42;;;;;;;21.67;100.00;93226.69;5050005;28;20210;-74
2023/07/17 02:23:49;;;;;;;22.83;20.55;;;;;;;21.58;100.00;93207.41;5049780;28;20191;-74
2023/07/17 02:26:15;;;;;;;24.08;21.77;;;;;;;21.66;100.00;93219.81;5050105;28;20245;-74
2023/07/17 02:28:40;;;;;;;27.15;21.58;;;;;;;21.65;100.00;93213.72;5049217;28;20183;-73
2023/07/17 02:31:05;;;;;;;23.02;20.73;;;;;;;21.58;100.00;93218.81;5050268;28;20224;-74
2023/07/17 02:33:31;;;;;;;24.30;21.20;;;;;;;21.60;100.00;93208.66;5050662;28;20223;-74
2023/07/17 02:35:56;;;;;;;24.63;22.25;;;;;;;21.51;100.00;93223.13;5049646;28;20246;-74
2023/07/17 02:38:22;;;;;;;23.73;21.33;;;;;;;21.49;100.00;93215.50;5051709;28;20204;-73
2023/07/17 02:40:47;;;;;;;22.30;19.95;;;;;;;21.44;100.00;93218.38;5054158;28;21490;-74
2023/07/17 02:43:12;;;;;;;23.77;21.15;;;;;;;21.25;100.00;93222.63;5050187;28;20215;-73
2023/07/17 02:45:38;;;;;;;23.38;21.10;;;;;;;21.24;100.00;93229.06;5049460;28;20231;-74
2023/07/17 02:48:03;;;;;;;23.17;20.98;;;;;;;21.39;100.00;93241.69;5050277;28;20187;-74
2023/07/17 02:50:29;;;;;;;24.23;21.83;;;;;;;21.32;100.00;93230.84;5049104;28;20246;-73
2023/07/17 02:52:55;;;;;;;23.15;20.65;;;;;;;21.40;100.00;93237.97;5049461;28;20199;-74
2023/07/17 02:55:24;;;;;;;23.85;21.55;;;;;;;21.34;100.00;93220.69;5044844;28;20239;-73
2023/07/17 02:57:50;;;;;;;25.55;21.33;;;;;;;21.14;100.00;93222.28;5049836;28;20246;-71
2023/07/17 03:00:17;;;;;;;23.98;21.48;;;;;;;21.32;100.00;93236.16;5049853;28;20236;-71
2023/07/17 03:02:45;;;;;;;24.85;21.40;;;;;;;21.26;100.00;93242.78;5049984;28;20252;-71
2023/07/17 03:05:11;;;;;;;25.55;22.90;;;;;;;21.32;100.00;93236.16;5046510;28;20227;-71
2023/07/17 03:07:39;;;;;;;22.75;20.35;;;;;;;21.39;100.00;93236.38;5039633;28;20211;-70
2023/07/17 03:10:05;;;;;;;23.52;21.02;;;;;;;21.19;100.00;93219.41;5051558;28;20233;-71
2023/07/17 03:12:31;;;;;;;24.15;21.20;;;;;;;21.41;100.00;93239.50;5047789;28;20213;-71
2023/07/17 03:14:57;;;;;;;27.00;21.10;;;;;;;21.56;100.00;93246.81;5051534;28;20215;-70
2023/07/17 03:17:22;;;;;;;23.27;20.98;;;;;;;21.66;100.00;93249.06;5057409;28;20180;-71
2023/07/17 03:19:48;;;;;;;24.40;21.98;;;;;;;21.68;100.00;93241.53;5057046;28;20215;-71
2023/07/17 03:22:13;;;;;;;23.58;21.05;;;;;;;21.73;100.00;93244.75;5048507;28;20194;-71
2023/07/17 03:24:38;;;;;;;25.73;21.23;;;;;;;21.73;100.00;93242.09;5059659;28;20226;-71
2023/07/17 03:27:04;;;;;;;23.63;21.33;;;;;;;21.71;100.00;93246.94;5053779;28;20185;-71
2023/07/17 03:29:29;;;;;;;23.52;21.10;;;;;;;21.52;100.00;93198.09;5058289;28;20214;-71
2023/07/17 03:31:55;;;;;;;23.67;21.08;;;;;;;22.03;100.00;93248.78;5056223;28;20200;-72
2023/07/17 03:34:20;;;;;;;30.08;22.05;;;;;;;21.86;100.00;93235.72;5052420;28;20220;-72
2023/07/17 03:36:45;;;;;;;22.80;20.50;;;;;;;21.81;100.00;93245.78;5030469;28;20178;-72
2023/07/17 03:39:11;;;;;;;23.55;20.50;;;;;;;21.99;100.00;93249.78;5035855;28;20200;-72
2023/07/17 03:41:37;;;;;;;25.02;22.23;;;;;;;22.01;100.00;93256.31;5059126;28;20214;-72
2023/07/17 03:44:03;;;;;;;27.70;21.17;;;;;;;21.91;100.00;93263.97;5053057;28;20177;-72
2023/07/17 03:46:30;;;;;;;29.02;22.35;;;;;;;21.96;100.00;93261.09;5052910;28;20247;-72
2023/07/17 03:48:55;;;;;;;24.25;20.67;;;;;;;22.06;100.00;93257.97;5052521;28;20234;-72
2023/07/17 03:51:21;;;;;;;23.60;21.23;;;;;;;22.27;100.00;93258.63;5052718;28;20225;-73
2023/07/17 03:53:47;;;;;;;25.05;22.42;;;;;;;22.27;100.00;93271.94;5051577;28;20194;-73
2023/07/17 03:56:12;;;;;;;24.05;21.80;;;;;;;22.41;100.00;93263.59;5062383;28;20236;-72
2023/07/17 03:58:38;;;;;;;25.80;21.10;;;;;;;22.52;100.00;93252.19;5052692;28;20207;-72
2023/07/17 04:01:03;;;;;;;23.80;21.40;;;;;;;22.58;98.78;93269.47;5053215;28;20251;-73
2023/07/17 04:03:28;;;;;;;23.42;21.15;;;;;;;22.60;98.31;93259.25;5058673;28;20180;-73
2023/07/17 04:05:54;;;;;;;22.67;20.35;;;;;;;22.89;96.30;93276.81;5052530;28;20304;-73
2023/07/17 04:08:19;;;;;;;23.50;21.10;;;;;;;23.16;94.39;93276.81;5052276;28;20196;-73
2023/07/17 04:10:45;;;;;;;23.80;21.30;;;;;;;23.17;94.20;93278.41;5062590;28;20937;-74
2023/07/17 04:13:10;;;;;;;24.27;21.85;;;;;;;23.22;94.96;93267.47;5056011;28;20237;-73
2023/07/17 04:15:36;;;;;;;21.63;19.13;;;;;;;23.05;94.99;93262.44;5051960;28;20224;-74
2023/07/17 04:18:02;;;;;;;24.23;21.92;;;;;;;23.22;92.83;93270.13;5054469;28;20209;-74
2023/07/17 04:20:27;;;;;;;23.50;21.08;;;;;;;23.53;90.70;93272.88;5059322;28;20256;-74
2023/07/17 04:22:53;;;;;;;22.70;20.40;;;;;;;23.61;89.70;93265.88;5047262;28;20189;-73
2023/07/17 04:25:18;;;;;;;22.67;20.35;;;;;;;23.56;90.36;93282.88;5043080;28;20230;-73
2023/07/17 04:27:44;;;;;;;23.15;20.95;;;;;;;23.63;89.49;93275.06;5032028;28;20212;-73
2023/07/17 04:30:10;;;;;;;24.05;21.58;;;;;;;23.26;92.44;93276.38;5039351;28;20289;-73
2023/07/17 04:32:35;;;;;;;22.80;20.55;;;;;;;23.34;90.25;93246.13;5051351;28;20196;-73
2023/07/17 04:35:00;;;;;;;24.23;20.85;;;;;;;23.62;90.47;93284.19;5051649;28;20242;-73
2023/07/17 04:37:26;;;;;;;23.83;20.58;;;;;;;23.47;90.58;93278.84;5056272;28;20228;-73
2023/07/17 04:39:51;;;;;;;22.05;19.73;;;;;;;23.64;88.46;93270.53;5051600;28;20258;-74
2023/07/17 04:42:16;;;;;;;23.05;19.02;;;;;;;23.55;89.80;93289.31;5051933;28;20200;-71
2023/07/17 04:44:44;;;;;;;22.85;20.42;;;;;;;23.84;88.75;93296.16;5051644;28;20293;-75
2023/07/17 04:47:10;;;;;;;21.58;19.38;;;;;;;23.68;90.21;93290.81;5052219;28;20184;-75
2023/07/17 04:49:36;;;;;;;24.17;20.17;;;;;;;23.74;88.29;93286.00;5051334;28;20172;-75
2023/07/17 04:52:01;;;;;;;21.15;18.38;;;;;;;24.04;87.19;93307.72;5048423;28;20185;-76
2023/07/17 04:54:27;;;;;;;22.50;20.25;;;;;;;24.20;87.60;93303.94;5049592;28;20217;-75
2023/07/17 04:56:52;;;;;;;23.45;20.65;;;;;;;24.43;85.18;93306.75;5045954;28;20169;-76
2023/07/17 04:59:19;;;;;;;22.92;19.40;;;;;;;24.16;85.74;93296.97;5051440;28;20189;-75
2023/07/17 05:01:44;;;;;;;25.48;20.80;;;;;;;24.50;85.80;93302.34;5042450;28;20182;-76
2023/07/17 05:04:10;;;;;;;29.15;23.83;;;;;;;24.92;82.56;93303.31;5048335;28;20243;-76
2023/07/17 05:06:35;;;;;;;27.58;23.13;;;;;;;24.83;82.92;93316.09;5052744;28;20251;-76
2023/07/17 05:09:01;;;;;;;24.27;21.70;;;;;;;25.14;81.01;93309.84;5050258;28;20183;-77
2023/07/17 05:11:27;;;;;;;23.48;20.98;;;;;;;25.06;80.54;93297.47;5048584;28;20232;-71
2023/07/17 05:13:52;;;;;;;22.60;20.40;;;;;;;24.90;81.36;93310.88;5051418;28;20270;-70
2023/07/17 05:16:17;;;;;;;23.95;21.65;;;;;;;24.30;85.03;93314.09;5039288;28;20233;-71
2023/07/17 05:18:43;;;;;;;25.25;21.08;;;;;;;24.54;83.28;93291.75;5050023;28;20195;-71
2023/07/17 05:21:08;;;;;;;23.30;19.95;;;;;;;24.75;81.92;93314.38;5058770;28;20241;-70
2023/07/17 05:23:34;;;;;;;26.63;21.50;;;;;;;24.73;82.72;93315.88;5051461;28;20198;-69
2023/07/17 05:26:00;;;;;;;25.67;22.83;;;;;;;24.59;83.04;93331.53;5040714;28;20252;-69
2023/07/17 05:28:28;;;;;;;26.95;22.27;;;;;;;24.70;82.27;93316.56;5041876;28;20211;-67
2023/07/17 05:30:54;;;;;;;22.92;20.23;;;;;;;24.74;81.81;93315.53;5049589;28;20245;-68
2023/07/17 05:33:21;;;;;;;23.08;20.63;;;;;;;24.91;81.57;93335.72;5049330;28;20203;-67
2023/07/17 05:35:47;;;;;;;22.25;18.88;;;;;;;25.47;78.06;93323.53;5051725;28;20260;-69
2023/07/17 05:38:12;;;;;;;23.63;21.13;;;;;;;25.83;75.98;93339.13;5044048;28;20194;-67
2023/07/17 05:40:39;;;;;;;21.63;19.45;;;;;;;25.67;76.74;93338.44;5029942;28;20770;-69
2023/07/17 05:43:05;;;;;;;22.65;20.35;;;;;;;26.36;74.32;93338.16;5026391;28;20194;-68
2023/07/17 05:45:30;;;;;;;21.70;19.40;;;;;;;27.18;70.13;93340.91;5027141;28;21090;-68
2023/07/17 05:47:56;;;;;;;20.35;18.33;;;;;;;26.62;72.17;93335.50;5046783;28;20178;-67
2023/07/17 05:50:21;;;;;;;21.40;18.95;;;;;;;26.32;73.75;93339.25;5042208;28;20229;-68
2023/07/17 05:52:47;;;;;;;21.20;18.98;;;;;;;27.50;69.21;93341.34;5019366;28;20195;-68
2023/07/17 05:55:12;;;;;;;21.25;19.10;;;;;;;28.40;65.13;93348.84;5025124;28;20227;-68
2023/07/17 05:57:38;;;;;;;25.38;17.25;;;;;;;31.83;54.48;93353.56;5045174;28;20199;-69
2023/07/17 06:00:04;;;;;;;19.88;17.48;;;;;;;35.00;45.14;93370.09;5049477;28;20237;-68
2023/07/17 06:02:30;;;;;;;20.20;16.73;;;;;;;36.30;40.20;93373.13;5039572;28;20193;-72
2023/07/17 06:04:55;;;;;;;17.70;15.82;;;;;;;37.58;37.36;93373.16;5047220;28;20230;-68
2023/07/17 06:07:21;;;;;;;18.73;16.83;;;;;;;38.36;35.15;93385.44;5049235;28;20178;-68
2023/07/17 06:09:46;;;;;;;20.73;15.88;;;;;;;38.08;35.68;93381.53;5046720;28;20229;-67
2023/07/17 06:12:11;;;;;;;17.02;14.73;;;;;;;38.29;35.09;93388.38;5047787;28;20182;-67
2023/07/17 06:14:37;;;;;;;17.90;16.02;;;;;;;38.68;34.10;93376.31;5048827;28;20229;-71
2023/07/17 06:17:02;;;;;;;20.25;15.48;;;;;;;40.40;31.40;93392.38;5048449;28;20200;-68
2023/07/17 06:19:28;;;;;;;25.77;18.20;;;;;;;40.48;30.91;93396.38;5045584;28;20186;-69
2023/07/17 06:21:53;;;;;;;15.65;14.18;;;;;;;39.56;32.34;93385.19;5043832;28;20187;-69
2023/07/17 06:24:19;;;;;;;17.02;15.20;;;;;;;40.18;30.37;93386.13;5044442;28;20206;-69
2023/07/17 06:26:44;;;;;;;18.63;14.88;;;;;;;39.07;31.96;93378.63;5051169;28;20178;-69
2023/07/17 06:29:10;;;;;;;18.67;15.23;;;;;;;39.19;31.77;93367.66;5042008;28;20199;-69
2023/07/17 06:31:37;;;;;;;17.50;15.65;;;;;;;39.29;31.93;93382.94;5042597;28;20229;-69
2023/07/17 06:34:02;;;;;;;18.05;14.80;;;;;;;40.02;30.90;93383.59;5047342;28;20254;-70
2023/07/17 06:36:28;;;;;;;16.02;14.43;;;;;;;40.30;30.76;93383.34;5049629;28;20214;-68
2023/07/17 06:38:53;;;;;;;16.58;14.57;;;;;;;40.74;29.10;93389.50;5047036;28;20200;-68
2023/07/17 06:41:19;;;;;;;16.38;14.65;;;;;;;38.76;33.35;93372.19;5050364;28;20240;-71
2023/07/17 06:43:44;;;;;;;17.65;15.38;;;;;;;40.82;29.13;93377.84;5049337;28;20194;-69
2023/07/17 06:46:10;;;;;;;16.73;15.05;;;;;;;38.68;32.34;93365.41;5050614;28;20222;-70
2023/07/17 06:48:36;;;;;;;18.42;14.40;;;;;;;37.71;33.87;93359.63;5053678;28;20218;-69
2023/07/17 06:51:04;;;;;;;16.40;14.73;;;;;;;34.67;39.92;93352.00;5045736;28;20230;-69
2023/07/17 06:53:30;;;;;;;18.27;16.42;;;;;;;31.58;49.13;93342.09;5041620;28;20182;-69
2023/07/17 06:55:56;;;;;;;23.05;16.45;;;;;;;30.78;50.22;93341.06;5043261;28;20310;-70
2023/07/17 06:58:22;;;;;;;21.13;17.80;;;;;;;28.52;57.80;93332.44;5047017;28;20186;-69
2023/07/17 07:00:54;;;;;;;19.88;17.83;;;;;;;28.10;61.08;93330.16;5041659;28;20253;-69
2023/07/17 07:03:19;;;;;;;21.60;19.38;;;;;;;27.55;62.64;93323.00;5046073;28;20974;-70
2023/07/17 07:05:56;;;;;;;21.33;18.40;;;;;;;27.41;63.49;93322.84;5043357;28;20244;-69
2023/07/17 07:08:24;;;;;;;23.00;18.77;;;;;;;28.16;62.32;93325.19;5044538;28;20216;-71
2023/07/17 07:10:54;;;;;;;21.35;18.30;;;;;;;28.43;61.74;93323.91;5043571;28;20313;-68
2023/07/17 07:13:20;;;;;;;21.40;19.08;;;;;;;28.45;60.65;93313.56;5039939;28;20188;-69
2023/07/17 07:15:46;;;;;;;20.95;18.67;;;;;;;27.81;64.01;93325.63;5034041;28;20269;-68
2023/07/17 07:18:11;;;;;;;22.30;20.00;;;;;;;27.65;65.52;93319.69;5050004;28;20225;-68
2023/07/17 07:20:37;;;;;;;20.25;18.27;;;;;;;28.30;64.15;93325.31;5046374;28;20219;-68
2023/07/17 07:23:02;;;;;;;22.20;18.92;;;;;;;27.98;67.05;93316.22;5042172;28;20276;-68
2023/07/17 07:25:27;;;;;;;23.23;20.88;;;;;;;27.19;64.92;93312.22;5044353;28;20760;-69
2023/07/17 07:27:53;;;;;;;22.30;20.00;;;;;;;28.11;62.56;93317.50;5044564;28;20199;-69
2023/07/17 07:30:19;;;;;;;21.38;19.13;;;;;;;28.43;62.93;93307.00;5044954;28;20229;-69
2023/07/17 07:32:44;;;;;;;21.85;19.55;;;;;;;28.21;61.75;93322.97;5048082;28;20194;-68
2023/07/17 07:35:10;;;;;;;23.95;19.38;;;;;;;28.13;62.92;93317.88;5047219;28;20260;-69
2023/07/17 07:37:36;;;;;;;30.88;20.02;;;;;;;28.16;63.69;93309.88;5047530;28;20182;-68
2023/07/17 07:40:03;;;;;;;22.45;19.30;;;;;;;28.47;61.88;93319.34;5049525;28;20221;-69
2023/07/17 07:42:28;;;;;;;21.10;18.90;;;;;;;28.42;60.39;93284.75;5047165;28;20182;-68
2023/07/17 07:44:54;;;;;;;23.98;19.42;;;;;;;28.23;63.07;93315.28;5038050;28;20245;-69
2023/07/17 07:47:19;;;;;;;23.02;19.30;;;;;;;28.16;62.90;93311.78;5037030;28;20226;-69
2023/07/17 07:49:44;;;;;;;22.85;19.58;;;;;;;27.91;65.61;93308.06;5041799;28;20240;-69
2023/07/17 07:52:10;;;;;;;26.23;20.15;;;;;;;28.59;61.29;93311.03;5047467;28;20205;-68
2023/07/17 07:54:35;;;;;;;21.63;19.33;;;;;;;28.11;65.01;93312.13;5046483;28;20182;-69
2023/07/17 07:57:01;;;;;;;20.55;18.48;;;;;;;28.48;62.81;93304.78;5047050;28;20221;-68
2023/07/17 07:59:26;;;;;;;26.00;20.60;;;;;;;28.39;62.16;93312.34;5046875;28;20221;-68
2023/07/17 08:01:51;;;;;;;22.25;19.67;;;;;;;28.59;60.18;93305.66;5047194;28;20182;-68
2023/07/17 08:04:17;;;;;;;22.63;18.67;;;;;;;28.85;62.63;93300.06;5047186;28;20233;-69
2023/07/17 08:06:42;;;;;;;21.02;18.60;;;;;;;28.78;61.81;93308.06;5053066;28;20187;-68
2023/07/17 08:09:08;;;;;;;21.98;19.50;;;;;;;28.88;62.75;93306.59;5050695;28;20189;-68
2023/07/17 08:11:33;;;;;;;20.60;18.48;;;;;;;29.16;59.21;93296.78;5049753;28;20244;-68
2023/07/17 08:13:58;;;;;;;21.33;19.10;;;;;;;28.46;64.62;93304.34;5051990;28;20205;-69
2023/07/17 08:16:24;;;;;;;22.33;20.02;;;;;;;29.01;59.41;93305.13;5045180;28;20243;-69
2023/07/17 08:18:50;;;;;;;23.15;18.35;;;;;;;28.85;61.41;93302.75;5050101;28;20182;-69
2023/07/17 08:21:16;;;;;;;24.98;20.17;;;;;;;29.10;60.48;93298.31;5038131;28;20457;-68
2023/07/17 08:23:41;;;;;;;22.83;20.33;;;;;;;29.16;59.90;93302.16;5055288;28;20192;-69
2023/07/17 08:26:08;;;;;;;20.75;18.73;;;;;;;28.90;63.24;93288.16;5054186;28;20226;-69
2023/07/17 08:28:34;;;;;;;21.25;18.85;;;;;;;28.63;64.25;93298.38;5052566;28;20192;-68
2023/07/17 08:30:59;;;;;;;22.58;19.98;;;;;;;28.42;62.88;93289.34;5050956;28;20228;-69
2023/07/17 08:33:25;;;;;;;22.95;20.42;;;;;;;28.27;62.86;93300.00;5053369;28;20194;-70
2023/07/17 08:35:51;;;;;;;22.02;19.63;;;;;;;28.82;62.70;93303.50;5046225;28;20285;-70
2023/07/17 08:38:16;;;;;;;23.10;18.98;;;;;;;29.30;59.32;93299.53;5041583;28;20288;-69
2023/07/17 08:40:49;;;;;;;23.05;19.48;;;;;;;29.22;61.44;93299.88;5049701;28;20221;-69
2023/07/17 08:43:15;;;;;;;20.92;18.67;;;;;;;29.17;60.86;93303.69;5047022;28;20189;-69
2023/07/17 08:45:40;;;;;;;21.35;18.90;;;;;;;28.82;61.04;93290.03;5052718;28;20492;-69
2023/07/17 08:48:06;;;;;;;21.65;19.08;;;;;;;29.15;59.80;93297.91;5047809;28;20194;-69
2023/07/17 08:50:32;;;;;;;21.65;18.45;;;;;;;29.41;60.86;93300.38;5050339;28;20244;-70
2023/07/17 08:52:58;;;;;;;24.23;19.02;;;;;;;29.76;56.92;93302.41;5049793;28;20194;-68
2023/07/17 08:55:25;;;;;;;19.05;16.95;;;;;;;29.57;58.61;93283.88;5049902;28;20305;-69
2023/07/17 08:57:52;;;;;;;21.38;16.85;;;;;;;29.74;59.47;93297.41;5053533;28;20244;-69
2023/07/17 09:00:19;;;;;;;22.83;17.38;;;;;;;29.82;58.83;93289.34;5047879;28;20230;-70
2023/07/17 09:02:44;;;;;;;19.00;17.05;;;;;;;29.44;57.94;93286.16;5051322;28;20193;-69
2023/07/17 09:05:10;;;;;;;20.80;17.55;;;;;;;29.66;60.38;93287.00;5046220;28;20244;-70
2023/07/17 09:07:36;;;;;;;19.95;17.48;;;;;;;29.79;56.32;93290.13;5051604;28;20199;-69
2023/07/17 09:10:22;;;;;;;19.30;17.33;;;;;;;29.89;57.37;93278.59;5050588;28;20216;-70
2023/07/17 09:12:55;;;;;;;19.60;16.45;;;;;;;30.29;55.97;93291.75;5058419;28;20188;-70
2023/07/17 09:15:22;;;;;;;18.83;16.48;;;;;;;30.42;56.43;93287.50;5049727;28;20776;-68
2023/07/17 09:17:47;;;;;;;21.45;17.65;;;;;;;30.45;55.58;93289.44;5050788;28;20190;-68
2023/07/17 09:20:16;;;;;;;23.55;16.83;;;;;;;30.36;55.52;93281.75;5050195;28;20224;-68
2023/07/17 09:22:41;;;;;;;20.33;16.67;;;;;;;30.57;54.99;93286.38;5051819;28;20189;-69
2023/07/17 09:25:07;;;;;;;20.10;16.40;;;;;;;30.58;53.45;93287.91;5050119;28;20217;-69
2023/07/17 09:27:50;;;;;;;22.15;17.90;;;;;;;30.57;50.53;93280.97;5054631;28;20184;-70
2023/07/17 09:30:21;;;;;;;18.40;15.43;;;;;;;30.65;52.04;93287.88;5041157;28;20236;-69
2023/07/17 09:32:48;;;;;;;22.05;16.13;;;;;;;30.79;50.66;93285.97;5052284;28;20205;-69
2023/07/17 09:35:14;;;;;;;19.55;14.32;;;;;;;30.88;49.78;93280.19;5050714;28;20250;-70
2023/07/17 09:37:44;;;;;;;17.52;14.70;;;;;;;30.78;48.99;93273.66;5046137;28;20190;-69
2023/07/17 09:40:13;;;;;;;19.63;15.52;;;;;;;30.37;50.16;93277.13;5047690;28;20317;-70
2023/07/17 09:42:44;;;;;;;20.42;15.32;;;;;;;30.43;49.00;93264.81;5047519;28;20207;-71
2023/07/17 09:45:14;;;;;;;15.57;13.27;;;;;;;30.52;48.48;93275.97;5042008;28;20227;-71
2023/07/17 09:47:40;;;;;;;15.55;13.45;;;;;;;30.43;47.56;93275.59;5046614;28;20215;-71
2023/07/17 09:50:07;;;;;;;15.07;13.30;;;;;;;30.66;46.32;93252.44;5045680;28;20230;-69
2023/07/17 09:52:33;;;;;;;16.38;14.45;;;;;;;30.73;45.79;93263.22;5051369;28;20181;-70
2023/07/17 09:55:00;;;;;;;14.95;13.57;;;;;;;30.62;48.32;93264.38;5038609;28;20238;-70
2023/07/17 09:57:30;;;;;;;16.15;14.40;;;;;;;30.78;49.50;93264.78;5050379;28;20193;-70
2023/07/17 10:00:18;;;;;;;15.45;13.70;;;;;;;30.92;45.65;93267.44;5057332;28;21021;-70
2023/07/17 10:03:00;;;;;;;19.90;14.98;;;;;;;30.90;45.98;93264.38;5048250;28;20197;-70
2023/07/17 10:05:26;;;;;;;15.68;13.60;;;;;;;30.80;46.13;93270.56;5045356;28;20240;-70
2023/07/17 10:07:53;;;;;;;14.60;13.35;;;;;;;30.94;43.83;93252.41;5048035;28;20879;-71
2023/07/17 10:10:19;;;;;;;15.73;13.20;;;;;;;30.96;43.89;93263.59;5045881;28;20230;-70
2023/07/17 10:12:45;;;;;;;17.65;13.45;;;;;;;31.03;43.14;93263.59;5046675;28;20197;-70
2023/07/17 10:15:11;;;;;;;14.82;13.32;;;;;;;30.99;44.64;93259.34;5048732;28;20233;-70
2023/07/17 10:17:37;;;;;;;14.27;12.93;;;;;;;30.70;44.35;93247.03;5048665;28;20279;-70
2023/07/17 10:20:12;;;;;;;15.38;13.18;;;;;;;31.13;43.52;93254.66;5044955;28;20321;-71
2023/07/17 10:22:43;;;;;;;14.55;12.95;;;;;;;30.99;42.62;93253.97;5042091;28;20188;-70
2023/07/17 10:25:18;;;;;;;15.48;13.02;;;;;;;31.33;42.23;93252.31;5045237;28;21319;-70
2023/07/17 10:27:45;;;;;;;13.55;12.25;;;;;;;31.17;43.27;93268.16;5046601;28;20223;-71
2023/07/17 10:30:30;;;;;;;14.10;12.77;;;;;;;31.32;42.50;93256.16;5050085;28;20226;-70
2023/07/17 10:33:01;;;;;;;16.95;13.38;;;;;;;30.62;41.53;93245.50;5036106;28;20237;-72
2023/07/17 10:35:32;;;;;;;14.80;13.30;;;;;;;30.34;42.13;93245.53;5038624;28;20275;-70
2023/07/17 10:38:08;;;;;;;13.77;12.38;;;;;;;30.48;41.53;93235.53;5046508;28;20206;-71
2023/07/17 10:40:34;;;;;;;16.30;12.52;;;;;;;30.97;41.58;93232.00;5048536;28;20222;-71
2023/07/17 10:43:16;;;;;;;13.98;12.68;;;;;;;30.99;41.40;93249.31;5046359;28;20186;-71
2023/07/17 10:45:43;;;;;;;13.57;12.30;;;;;;;30.74;41.23;93215.47;5048586;28;20234;-71
2023/07/17 10:48:08;;;;;;;14.18;12.88;;;;;;;31.10;41.98;93241.19;5045425;28;20197;-71
2023/07/17 10:50:35;;;;;;;14.70;13.40;;;;;;;31.29;39.35;93239.97;5039256;28;20226;-71
2023/07/17 10:53:04;;;;;;;14.75;12.55;;;;;;;31.32;39.89;93239.97;5045995;28;20992;-71
2023/07/17 10:55:31;;;;;;;14.30;13.00;;;;;;;31.37;40.60;93231.47;5045899;28;20214;-71
2023/07/17 10:57:58;;;;;;;14.00;12.20;;;;;;;31.29;39.99;93238.03;5046011;28;20903;-71
2023/07/17 11:00:24;;;;;;;14.05;12.73;;;;;;;31.48;38.32;93240.28;5044495;28;20304;-71
2023/07/17 11:02:50;;;;;;;15.73;12.07;;;;;;;31.38;39.99;93222.19;5048366;28;20192;-71
2023/07/17 11:05:15;;;;;;;14.18;12.85;;;;;;;31.56;40.12;93222.91;5046516;28;20289;-71
2023/07/17 11:07:41;;;;;;;13.50;12.20;;;;;;;31.74;40.70;93222.78;5037985;28;20182;-71
2023/07/17 11:10:15;;;;;;;14.00;12.63;;;;;;;31.52;40.24;93224.06;5042641;28;20281;-72
2023/07/17 11:12:41;;;;;;;14.80;13.40;;;;;;;31.14;38.36;93226.53;5040466;28;20174;-71